Aérodrome :
LOGIN :

S'inscrire | Disclaimer

   EN    FR    IT 

 










Légende :    VFR   VFR Marginal   IFR   IFR Intensif   IFR Très Intensif
Visi : 
Plafond : 
>= 8 km
>= 3000ft
5 à 8 km
1000 à 3000 ft
1500m à 5 km
500 à 1000 ft
800 à 1500m
200 à 500 ft
< 800m
< 200 ft
Symboles :   Orages  Brouillard  Fortes neiges  Fortes précipitations  Vent > 20 kt
SIGMETs :   Divers  Orages  Givrage  Turbulence  Onde Orograph.  Cendres Volcan.







- Altitude de l'aérodrome : 433 ft
- Voir les cartes d'approche


LFOC - Chateaudun

DERNIER METAR :
  • 140800Z AUTO 23013KT CAVOK 05/02 Q1004 BECMG 24015G25KT SCT030TCU

METARs EXPIRÉS :
  • 140730Z AUTO 24016KT CAVOK 05/02 Q1004 BECMG 24015G25KT SCT030TCU
  • 140700Z AUTO 24015KT CAVOK 05/02 Q1005 BECMG 24015G25KT SCT030TCU
  • 140630Z AUTO 24016KT CAVOK 05/02 Q1004 BECMG 24015G25KT SCT030TCU
  • 140600Z AUTO 23015KT CAVOK 05/02 Q1005
  • 140530Z AUTO 24013KT CAVOK 04/02 Q1005

TAF AMD TAF LFOC
Valide du 14 à 05h jusqu'au 15 à 03h UTC


140550Z 1405/1503 23015KT CAVOK
BECMG 1408/1410 24015G25KT SCT030TCU
TEMPO 1410/1418 3000 SHRA SCT012 BKN020TCU
PROB40
TEMPO 1412/1416 25025G35KT 2000 SHGS SCT012 BKN020CB
BECMG 1418/1420 SCT014
Pas de NOTAMs connus pour ce terrain.
2 SIGMETs publiés pour la FIR Paris (LFFF) :
 
Turbulence forte
LFFF SIGMET 5 VALID 140730/140900 LFPW
LFFF PARIS FIR/UIR SEV TURB OBS AT 0730Z NW OF LINE N4900 W00015 - N5100 E00230 SFC/FL060 STNR WKN=
Orages noyés dans la masse
LFFF SIGMET 4 VALID 140625/140830 LFPW
LFFF PARIS FIR/UIR EMBD TS OBS AT 0625Z WI N5000 W00015 - N5100 E00145 - N5000 E00215 - N4915 W00015 - N5000 W00015 TOP FL280 MOV E 40KT NC=



MET'MAP, la Météo Aéronautique d'un coup d'oeil ! - Copyright ORBIFLY Décembre 2007 - Disclaimer

ORBIFLY MET'MAP TEAM :

Programmation & Développement : Alexandra Zaïnal
Conception & Développement : Baudouin d'Aumeries
Co-Programmation & Développement : Marc-Olivier Méhu
Soutien technique & logistique : Manuel Goepfert

Contact : metmap@orbifly.com




SOURCES & CREDITS :

   NOAA